BAW85U LKPR-EGLL
Flight info
| Callsign | BAW85U |
|---|---|
| Flight time | 1h 39m |
| Altitude | 36000 |
| Route | BALTU6H BALTU DCT DONAD DCT RAPET Z93 KODUK DCT MASEK DCT ARPEG DCT ABNED L980 LOGAN LOGAN2H |
| Aircraft | A319/M-SDE2E3FGHIJ1RWXY/SB1 |
Departure
| Time | 2026-05-06 19:04 |
|---|---|
| Airport | Václav Havel Airport Prague (LKPR) |
Arrival
| Time | 2026-05-06 20:43 |
|---|---|
| Airport | London Heathrow Airport (EGLL) |
| Time | Latitude | Longitude | Altitude | Speed | Heading |
|---|---|---|---|---|---|
| 2026-05-06 18:22 | 50.10898 | 14.26644 | 1177 ft | 0 kts | 219° |
| 2026-05-06 18:48 | 50.10915 | 14.26665 | 1172 ft | 3 kts | 214° |
| 2026-05-06 18:49 | 50.10938 | 14.26688 | 1172 ft | 4 kts | 212° |
| 2026-05-06 18:49 | 50.10959 | 14.26712 | 1177 ft | 4 kts | 232° |
| 2026-05-06 18:49 | 50.10969 | 14.26727 | 1175 ft | 3 kts | 325° |
| 2026-05-06 18:49 | 50.10968 | 14.26728 | 1177 ft | 0 kts | 334° |
| 2026-05-06 18:53 | 50.10974 | 14.26724 | 1177 ft | 3 kts | 334° |
| 2026-05-06 18:53 | 50.10999 | 14.26703 | 1174 ft | 5 kts | 332° |
| 2026-05-06 18:53 | 50.11036 | 14.26671 | 1176 ft | 7 kts | 329° |
| 2026-05-06 18:54 | 50.11071 | 14.26580 | 1172 ft | 13 kts | 280° |
| 2026-05-06 18:54 | 50.11080 | 14.26424 | 1170 ft | 16 kts | 276° |
| 2026-05-06 18:54 | 50.11076 | 14.26241 | 1169 ft | 18 kts | 249° |
| 2026-05-06 18:54 | 50.11020 | 14.26056 | 1169 ft | 20 kts | 244° |
| 2026-05-06 18:55 | 50.10935 | 14.25879 | 1171 ft | 21 kts | 215° |
| 2026-05-06 18:55 | 50.10813 | 14.25759 | 1171 ft | 20 kts | 210° |
| 2026-05-06 18:55 | 50.10747 | 14.25689 | 1175 ft | 10 kts | 215° |
| 2026-05-06 18:55 | 50.10693 | 14.25629 | 1174 ft | 9 kts | 216° |
| 2026-05-06 18:56 | 50.10646 | 14.25574 | 1178 ft | 7 kts | 218° |
| 2026-05-06 18:56 | 50.10611 | 14.25516 | 1178 ft | 8 kts | 236° |
| 2026-05-06 18:56 | 50.10591 | 14.25421 | 1174 ft | 10 kts | 259° |
| 2026-05-06 18:56 | 50.10586 | 14.25375 | 1175 ft | 0 kts | 260° |
| 2026-05-06 18:57 | 50.10584 | 14.25360 | 1033 ft | 3 kts | 261° |
| 2026-05-06 18:57 | 50.10578 | 14.25304 | 1173 ft | 7 kts | 260° |
| 2026-05-06 18:57 | 50.10575 | 14.25276 | 1170 ft | 0 kts | 259° |
| 2026-05-06 19:02 | 50.10574 | 14.25274 | 1174 ft | 1 kts | 259° |
| 2026-05-06 19:03 | 50.10565 | 14.25211 | 1171 ft | 11 kts | 254° |
| 2026-05-06 19:03 | 50.10507 | 14.25140 | 1174 ft | 12 kts | 143° |
| 2026-05-06 19:03 | 50.10490 | 14.25185 | 1173 ft | 14 kts | 117° |
| 2026-05-06 19:03 | 50.10269 | 14.25648 | 1187 ft | 90 kts | 129° |
| 2026-05-06 19:04 | 50.09763 | 14.26700 | 1244 ft | 147 kts | 124° |
| 2026-05-06 19:04 | 50.09150 | 14.27950 | 1866 ft | 142 kts | 126° |
| 2026-05-06 19:04 | 50.08549 | 14.29177 | 2460 ft | 144 kts | 125° |
| 2026-05-06 19:04 | 50.07909 | 14.30502 | 2722 ft | 163 kts | 125° |
| 2026-05-06 19:05 | 50.07179 | 14.32017 | 2976 ft | 185 kts | 126° |
| 2026-05-06 19:05 | 50.06367 | 14.33698 | 3234 ft | 209 kts | 127° |
| 2026-05-06 19:05 | 50.05436 | 14.35618 | 3558 ft | 234 kts | 127° |
| 2026-05-06 19:05 | 50.04402 | 14.37745 | 4021 ft | 258 kts | 128° |
| 2026-05-06 19:06 | 50.03294 | 14.40017 | 4793 ft | 267 kts | 129° |
| 2026-05-06 19:06 | 50.02162 | 14.42340 | 5672 ft | 272 kts | 129° |
| 2026-05-06 19:06 | 50.01028 | 14.44706 | 6590 ft | 276 kts | 127° |
| 2026-05-06 19:06 | 50.00326 | 14.47531 | 7396 ft | 289 kts | 99° |
| 2026-05-06 19:07 | 50.00553 | 14.50668 | 8198 ft | 300 kts | 70° |
| 2026-05-06 19:07 | 50.01742 | 14.53345 | 8991 ft | 307 kts | 40° |
| 2026-05-06 19:07 | 50.03463 | 14.55395 | 9809 ft | 311 kts | 35° |
| 2026-05-06 19:07 | 50.05330 | 14.57212 | 10179 ft | 330 kts | 20° |
| 2026-05-06 19:08 | 50.07631 | 14.57912 | 10416 ft | 346 kts | 355° |
| 2026-05-06 19:08 | 50.09961 | 14.57038 | 10936 ft | 347 kts | 330° |
| 2026-05-06 19:08 | 50.11858 | 14.54795 | 11610 ft | 343 kts | 306° |
| 2026-05-06 19:08 | 50.13006 | 14.51596 | 12305 ft | 338 kts | 283° |
| 2026-05-06 19:09 | 50.13325 | 14.47994 | 13009 ft | 337 kts | 270° |
| 2026-05-06 19:09 | 50.13454 | 14.44329 | 13696 ft | 340 kts | 270° |
| 2026-05-06 19:09 | 50.13572 | 14.40622 | 14340 ft | 344 kts | 270° |
| 2026-05-06 19:09 | 50.13690 | 14.36880 | 14974 ft | 347 kts | 270° |
| 2026-05-06 19:10 | 50.13813 | 14.33113 | 15549 ft | 351 kts | 270° |
| 2026-05-06 19:10 | 50.13941 | 14.29357 | 15918 ft | 351 kts | 270° |
| 2026-05-06 19:10 | 50.14075 | 14.25497 | 16302 ft | 353 kts | 270° |
| 2026-05-06 19:10 | 50.14207 | 14.21705 | 16801 ft | 357 kts | 270° |
| 2026-05-06 19:11 | 50.14341 | 14.17824 | 17402 ft | 360 kts | 270° |
| 2026-05-06 19:11 | 50.14475 | 14.13910 | 18009 ft | 364 kts | 270° |
| 2026-05-06 19:11 | 50.14606 | 14.09950 | 18540 ft | 367 kts | 269° |
| 2026-05-06 19:11 | 50.14736 | 14.05967 | 19068 ft | 370 kts | 269° |
| 2026-05-06 19:12 | 50.14867 | 14.01945 | 19572 ft | 373 kts | 269° |
| 2026-05-06 19:12 | 50.14998 | 13.97909 | 19728 ft | 373 kts | 269° |
| 2026-05-06 19:12 | 50.15128 | 13.93877 | 19766 ft | 373 kts | 269° |
| 2026-05-06 19:12 | 50.15255 | 13.89840 | 19767 ft | 372 kts | 269° |
| 2026-05-06 19:13 | 50.15379 | 13.85792 | 19995 ft | 375 kts | 269° |
| 2026-05-06 19:13 | 50.15505 | 13.81715 | 20540 ft | 377 kts | 269° |
| 2026-05-06 19:13 | 50.15629 | 13.77616 | 21085 ft | 380 kts | 269° |
| 2026-05-06 19:13 | 50.15750 | 13.73490 | 21625 ft | 382 kts | 269° |
| 2026-05-06 19:14 | 50.15870 | 13.69335 | 22133 ft | 385 kts | 269° |
| 2026-05-06 19:14 | 50.15990 | 13.65147 | 22630 ft | 387 kts | 269° |
| 2026-05-06 19:14 | 50.16113 | 13.60933 | 23127 ft | 390 kts | 269° |
| 2026-05-06 19:14 | 50.16236 | 13.56690 | 23570 ft | 393 kts | 269° |
| 2026-05-06 19:15 | 50.16358 | 13.52426 | 23999 ft | 395 kts | 269° |
| 2026-05-06 19:15 | 50.16476 | 13.48147 | 24431 ft | 396 kts | 269° |
| 2026-05-06 19:15 | 50.16593 | 13.43846 | 24861 ft | 398 kts | 268° |
| 2026-05-06 19:15 | 50.16709 | 13.39528 | 25288 ft | 399 kts | 268° |
| 2026-05-06 19:16 | 50.16824 | 13.35195 | 25706 ft | 401 kts | 268° |
| 2026-05-06 19:16 | 50.16936 | 13.30843 | 26132 ft | 402 kts | 268° |
| 2026-05-06 19:16 | 50.17045 | 13.26475 | 26556 ft | 404 kts | 268° |
| 2026-05-06 19:16 | 50.17155 | 13.22095 | 26970 ft | 405 kts | 268° |
| 2026-05-06 19:17 | 50.17265 | 13.17694 | 27382 ft | 407 kts | 268° |
| 2026-05-06 19:17 | 50.17374 | 13.13270 | 27795 ft | 409 kts | 268° |
| 2026-05-06 19:17 | 50.17481 | 13.08831 | 28235 ft | 410 kts | 268° |
| 2026-05-06 19:17 | 50.17588 | 13.04368 | 28630 ft | 412 kts | 268° |
| 2026-05-06 19:18 | 50.17696 | 12.99891 | 29017 ft | 414 kts | 268° |
| 2026-05-06 19:18 | 50.17802 | 12.95396 | 29381 ft | 415 kts | 268° |
| 2026-05-06 19:18 | 50.17907 | 12.90891 | 29766 ft | 418 kts | 267° |
| 2026-05-06 19:18 | 50.18010 | 12.86341 | 30070 ft | 419 kts | 267° |
| 2026-05-06 19:19 | 50.18110 | 12.81787 | 30377 ft | 421 kts | 267° |
| 2026-05-06 19:19 | 50.18205 | 12.77209 | 30666 ft | 422 kts | 267° |
| 2026-05-06 19:19 | 50.18298 | 12.72631 | 30973 ft | 423 kts | 267° |
| 2026-05-06 19:19 | 50.18392 | 12.68106 | 31377 ft | 421 kts | 267° |
| 2026-05-06 19:20 | 50.18488 | 12.63499 | 31809 ft | 419 kts | 267° |
| 2026-05-06 19:20 | 50.18581 | 12.58958 | 32243 ft | 417 kts | 266° |
| 2026-05-06 19:20 | 50.18668 | 12.54503 | 32673 ft | 415 kts | 266° |
| 2026-05-06 19:20 | 50.18753 | 12.50007 | 33105 ft | 414 kts | 266° |
| 2026-05-06 19:21 | 50.18835 | 12.45527 | 33558 ft | 412 kts | 266° |
| 2026-05-06 19:21 | 50.18915 | 12.41052 | 33922 ft | 412 kts | 266° |
| 2026-05-06 19:21 | 50.18992 | 12.36584 | 34219 ft | 412 kts | 266° |
| 2026-05-06 19:21 | 50.19064 | 12.32109 | 34480 ft | 413 kts | 265° |
| 2026-05-06 19:22 | 50.19090 | 12.27636 | 34744 ft | 413 kts | 265° |
| 2026-05-06 19:22 | 50.19078 | 12.23144 | 35007 ft | 414 kts | 264° |
| 2026-05-06 19:22 | 50.19125 | 12.18631 | 35258 ft | 419 kts | 272° |
| 2026-05-06 19:22 | 50.19833 | 12.14160 | 35491 ft | 430 kts | 283° |
| 2026-05-06 19:23 | 50.20829 | 12.09750 | 35707 ft | 432 kts | 284° |
| 2026-05-06 19:23 | 50.22866 | 12.00918 | 35838 ft | 432 kts | 284° |
| 2026-05-06 19:24 | 50.24902 | 11.92087 | 35810 ft | 431 kts | 284° |
| 2026-05-06 19:24 | 50.26917 | 11.83257 | 35811 ft | 431 kts | 284° |
| 2026-05-06 19:25 | 50.28900 | 11.74477 | 35810 ft | 430 kts | 284° |
| 2026-05-06 19:25 | 50.30885 | 11.65653 | 35810 ft | 430 kts | 284° |
| 2026-05-06 19:26 | 50.32866 | 11.56819 | 35828 ft | 430 kts | 284° |
| 2026-05-06 19:26 | 50.34843 | 11.47981 | 35801 ft | 431 kts | 284° |
| 2026-05-06 19:27 | 50.36821 | 11.39097 | 35792 ft | 431 kts | 284° |
| 2026-05-06 19:27 | 50.38783 | 11.30234 | 35782 ft | 431 kts | 284° |
| 2026-05-06 19:28 | 50.40743 | 11.21352 | 35786 ft | 432 kts | 283° |
| 2026-05-06 19:28 | 50.42697 | 11.12440 | 35793 ft | 432 kts | 284° |
| 2026-05-06 19:29 | 50.44647 | 11.03527 | 35784 ft | 433 kts | 284° |
| 2026-05-06 19:29 | 50.46592 | 10.94580 | 35779 ft | 433 kts | 283° |
| 2026-05-06 19:30 | 50.48534 | 10.85632 | 35782 ft | 433 kts | 283° |
| 2026-05-06 19:30 | 50.50475 | 10.76657 | 35783 ft | 434 kts | 283° |
| 2026-05-06 19:31 | 50.52078 | 10.69202 | 35797 ft | 434 kts | 284° |
| 2026-05-06 19:31 | 50.55277 | 10.54228 | 35784 ft | 435 kts | 283° |
| 2026-05-06 19:32 | 50.56882 | 10.46668 | 35779 ft | 436 kts | 283° |
| 2026-05-06 19:32 | 50.58800 | 10.37627 | 35780 ft | 436 kts | 283° |
| 2026-05-06 19:33 | 50.60712 | 10.28564 | 35802 ft | 436 kts | 283° |
| 2026-05-06 19:33 | 50.62614 | 10.19489 | 35789 ft | 437 kts | 283° |
| 2026-05-06 19:34 | 50.64513 | 10.10400 | 35795 ft | 437 kts | 283° |
| 2026-05-06 19:34 | 50.66411 | 10.01303 | 35791 ft | 437 kts | 283° |
| 2026-05-06 19:35 | 50.68297 | 9.92200 | 35799 ft | 437 kts | 283° |
| 2026-05-06 19:35 | 50.70173 | 9.83078 | 35817 ft | 437 kts | 284° |
| 2026-05-06 19:36 | 50.72046 | 9.73944 | 35813 ft | 438 kts | 284° |
| 2026-05-06 19:36 | 50.73910 | 9.64799 | 35807 ft | 438 kts | 283° |
| 2026-05-06 19:37 | 50.75768 | 9.55643 | 35809 ft | 438 kts | 283° |
| 2026-05-06 19:37 | 50.77610 | 9.46541 | 35811 ft | 438 kts | 283° |
| 2026-05-06 19:38 | 50.79459 | 9.37359 | 35838 ft | 438 kts | 284° |
| 2026-05-06 19:38 | 50.81304 | 9.28182 | 35836 ft | 438 kts | 284° |
| 2026-05-06 19:39 | 50.83147 | 9.18947 | 35832 ft | 438 kts | 284° |
| 2026-05-06 19:39 | 50.84959 | 9.09802 | 35830 ft | 438 kts | 284° |
| 2026-05-06 19:40 | 50.86776 | 9.00614 | 35829 ft | 438 kts | 284° |
| 2026-05-06 19:40 | 50.88582 | 8.91414 | 35829 ft | 438 kts | 284° |
| 2026-05-06 19:41 | 50.90378 | 8.82211 | 35834 ft | 438 kts | 284° |
| 2026-05-06 19:41 | 50.92170 | 8.72988 | 35834 ft | 438 kts | 284° |
| 2026-05-06 19:42 | 50.93963 | 8.63768 | 35837 ft | 438 kts | 284° |
| 2026-05-06 19:42 | 50.95747 | 8.54544 | 35837 ft | 438 kts | 283° |
| 2026-05-06 19:43 | 50.97523 | 8.45301 | 35851 ft | 438 kts | 284° |
| 2026-05-06 19:43 | 50.99289 | 8.36035 | 35844 ft | 438 kts | 284° |
| 2026-05-06 19:44 | 51.01048 | 8.26767 | 35847 ft | 439 kts | 284° |
| 2026-05-06 19:44 | 51.02802 | 8.17485 | 35846 ft | 439 kts | 284° |
| 2026-05-06 19:45 | 51.04552 | 8.08202 | 35861 ft | 439 kts | 284° |
| 2026-05-06 19:45 | 51.06298 | 7.98886 | 35876 ft | 439 kts | 284° |
| 2026-05-06 19:46 | 51.08034 | 7.89577 | 35888 ft | 439 kts | 284° |
| 2026-05-06 19:46 | 51.09749 | 7.80311 | 35883 ft | 439 kts | 284° |
| 2026-05-06 19:47 | 51.11469 | 7.70981 | 35887 ft | 439 kts | 284° |
| 2026-05-06 19:47 | 51.13186 | 7.61639 | 35890 ft | 439 kts | 284° |
| 2026-05-06 19:48 | 51.14888 | 7.52318 | 35895 ft | 439 kts | 284° |
| 2026-05-06 19:48 | 51.16586 | 7.42955 | 35886 ft | 439 kts | 284° |
| 2026-05-06 19:49 | 51.18285 | 7.33584 | 35895 ft | 439 kts | 284° |
| 2026-05-06 19:49 | 51.19969 | 7.24224 | 35900 ft | 439 kts | 284° |
| 2026-05-06 19:50 | 51.21642 | 7.14846 | 35919 ft | 439 kts | 284° |
| 2026-05-06 19:50 | 51.23311 | 7.05466 | 35912 ft | 439 kts | 284° |
| 2026-05-06 19:51 | 51.24970 | 6.96096 | 35913 ft | 439 kts | 284° |
| 2026-05-06 19:51 | 51.26620 | 6.86752 | 35914 ft | 439 kts | 284° |
| 2026-05-06 19:52 | 51.28263 | 6.77357 | 35914 ft | 439 kts | 283° |
| 2026-05-06 19:52 | 51.29903 | 6.67958 | 35920 ft | 439 kts | 284° |
| 2026-05-06 19:53 | 51.31541 | 6.58537 | 35922 ft | 439 kts | 284° |
| 2026-05-06 19:53 | 51.33166 | 6.49119 | 35917 ft | 439 kts | 283° |
| 2026-05-06 19:54 | 51.34778 | 6.39707 | 35921 ft | 439 kts | 283° |
| 2026-05-06 19:54 | 51.36381 | 6.30282 | 35930 ft | 439 kts | 283° |
| 2026-05-06 19:55 | 51.37977 | 6.20843 | 35944 ft | 439 kts | 283° |
| 2026-05-06 19:55 | 51.39569 | 6.11408 | 35945 ft | 438 kts | 283° |
| 2026-05-06 19:56 | 51.41156 | 6.01984 | 35943 ft | 438 kts | 283° |
| 2026-05-06 19:56 | 51.42723 | 5.92618 | 35946 ft | 438 kts | 283° |
| 2026-05-06 19:57 | 51.44291 | 5.83182 | 35946 ft | 438 kts | 283° |
| 2026-05-06 19:57 | 51.45850 | 5.73741 | 35954 ft | 438 kts | 283° |
| 2026-05-06 19:58 | 51.47395 | 5.64310 | 35952 ft | 437 kts | 283° |
| 2026-05-06 19:58 | 51.48934 | 5.54864 | 35956 ft | 437 kts | 283° |
| 2026-05-06 19:59 | 51.50468 | 5.45418 | 35956 ft | 437 kts | 283° |
| 2026-05-06 19:59 | 51.51995 | 5.35965 | 35955 ft | 437 kts | 283° |
| 2026-05-06 20:00 | 51.53506 | 5.26568 | 35958 ft | 437 kts | 283° |
| 2026-05-06 20:00 | 51.55010 | 5.17114 | 35958 ft | 437 kts | 283° |
| 2026-05-06 20:01 | 51.56504 | 5.07664 | 35957 ft | 437 kts | 283° |
| 2026-05-06 20:01 | 51.57997 | 4.98193 | 35957 ft | 436 kts | 283° |
| 2026-05-06 20:02 | 51.59484 | 4.88724 | 35952 ft | 436 kts | 283° |
| 2026-05-06 20:02 | 51.60954 | 4.79257 | 35954 ft | 436 kts | 283° |
| 2026-05-06 20:03 | 51.62428 | 4.69777 | 35957 ft | 436 kts | 283° |
| 2026-05-06 20:03 | 51.63889 | 4.60358 | 35957 ft | 436 kts | 283° |
| 2026-05-06 20:04 | 51.65348 | 4.50891 | 35951 ft | 435 kts | 283° |
| 2026-05-06 20:04 | 51.66791 | 4.41419 | 35951 ft | 435 kts | 283° |
| 2026-05-06 20:05 | 51.68217 | 4.31931 | 35948 ft | 435 kts | 283° |
| 2026-05-06 20:05 | 51.69637 | 4.22442 | 35949 ft | 435 kts | 283° |
| 2026-05-06 20:06 | 51.71061 | 4.12946 | 35953 ft | 436 kts | 283° |
| 2026-05-06 20:06 | 51.72472 | 4.03494 | 35955 ft | 436 kts | 282° |
| 2026-05-06 20:07 | 51.73877 | 3.93984 | 35959 ft | 436 kts | 282° |
| 2026-05-06 20:07 | 51.75273 | 3.84464 | 35977 ft | 435 kts | 282° |
| 2026-05-06 20:08 | 51.76662 | 3.74969 | 35985 ft | 433 kts | 282° |
| 2026-05-06 20:08 | 51.78033 | 3.65516 | 35979 ft | 432 kts | 282° |
| 2026-05-06 20:09 | 51.79397 | 3.56059 | 35978 ft | 432 kts | 282° |
| 2026-05-06 20:09 | 51.80755 | 3.46611 | 35987 ft | 431 kts | 282° |
| 2026-05-06 20:10 | 51.82099 | 3.37180 | 35985 ft | 430 kts | 282° |
| 2026-05-06 20:10 | 51.83422 | 3.27814 | 35987 ft | 430 kts | 282° |
| 2026-05-06 20:11 | 51.84604 | 3.18360 | 35984 ft | 428 kts | 275° |
| 2026-05-06 20:11 | 51.84375 | 3.08784 | 35987 ft | 427 kts | 264° |
| 2026-05-06 20:12 | 51.83753 | 2.99234 | 35989 ft | 427 kts | 264° |
| 2026-05-06 20:12 | 51.83130 | 2.89696 | 35989 ft | 427 kts | 264° |
| 2026-05-06 20:13 | 51.82490 | 2.80141 | 35984 ft | 427 kts | 263° |
| 2026-05-06 20:13 | 51.81842 | 2.70607 | 35988 ft | 427 kts | 264° |
| 2026-05-06 20:14 | 51.81192 | 2.61058 | 35937 ft | 428 kts | 263° |
| 2026-05-06 20:14 | 51.80867 | 2.56346 | 35682 ft | 427 kts | 263° |
| 2026-05-06 20:14 | 51.80537 | 2.51576 | 35441 ft | 427 kts | 263° |
| 2026-05-06 20:15 | 51.80203 | 2.46788 | 35195 ft | 428 kts | 263° |
| 2026-05-06 20:15 | 51.79868 | 2.42025 | 34954 ft | 427 kts | 263° |
| 2026-05-06 20:15 | 51.79530 | 2.37251 | 34712 ft | 427 kts | 263° |
| 2026-05-06 20:15 | 51.79190 | 2.32492 | 34090 ft | 430 kts | 263° |
| 2026-05-06 20:16 | 51.78842 | 2.27656 | 33119 ft | 435 kts | 263° |
| 2026-05-06 20:16 | 51.78487 | 2.22786 | 32264 ft | 437 kts | 263° |
| 2026-05-06 20:16 | 51.78150 | 2.17900 | 31473 ft | 438 kts | 264° |
| 2026-05-06 20:16 | 51.77857 | 2.13050 | 31054 ft | 431 kts | 265° |
| 2026-05-06 20:17 | 51.77588 | 2.08259 | 30492 ft | 427 kts | 265° |
| 2026-05-06 20:17 | 51.77329 | 2.03493 | 29925 ft | 423 kts | 265° |
| 2026-05-06 20:17 | 51.77070 | 1.98787 | 29340 ft | 418 kts | 265° |
| 2026-05-06 20:17 | 51.76803 | 1.94141 | 28800 ft | 413 kts | 264° |
| 2026-05-06 20:18 | 51.76619 | 1.91041 | 28440 ft | 409 kts | 264° |
| 2026-05-06 20:18 | 51.76347 | 1.86554 | 27930 ft | 405 kts | 264° |
| 2026-05-06 20:18 | 51.76069 | 1.82067 | 27398 ft | 400 kts | 264° |
| 2026-05-06 20:18 | 51.75790 | 1.77622 | 26878 ft | 396 kts | 264° |
| 2026-05-06 20:19 | 51.75512 | 1.73226 | 26371 ft | 392 kts | 264° |
| 2026-05-06 20:19 | 51.75236 | 1.68871 | 25865 ft | 388 kts | 264° |
| 2026-05-06 20:19 | 51.74961 | 1.64550 | 25383 ft | 384 kts | 264° |
| 2026-05-06 20:19 | 51.74691 | 1.60274 | 24898 ft | 382 kts | 264° |
| 2026-05-06 20:20 | 51.74423 | 1.55992 | 24309 ft | 383 kts | 264° |
| 2026-05-06 20:20 | 51.74155 | 1.51724 | 23735 ft | 383 kts | 264° |
| 2026-05-06 20:20 | 51.73882 | 1.47439 | 23094 ft | 383 kts | 264° |
| 2026-05-06 20:20 | 51.73607 | 1.43185 | 22526 ft | 380 kts | 264° |
| 2026-05-06 20:21 | 51.73416 | 1.38947 | 21996 ft | 377 kts | 273° |
| 2026-05-06 20:21 | 51.73688 | 1.34791 | 21668 ft | 369 kts | 276° |
| 2026-05-06 20:21 | 51.73997 | 1.30707 | 21202 ft | 365 kts | 277° |
| 2026-05-06 20:21 | 51.74303 | 1.26662 | 20707 ft | 362 kts | 277° |
| 2026-05-06 20:22 | 51.74605 | 1.22649 | 20202 ft | 359 kts | 277° |
| 2026-05-06 20:22 | 51.74897 | 1.18718 | 19706 ft | 356 kts | 277° |
| 2026-05-06 20:22 | 51.75191 | 1.14717 | 19193 ft | 354 kts | 277° |
| 2026-05-06 20:22 | 51.75473 | 1.10838 | 18701 ft | 351 kts | 277° |
| 2026-05-06 20:23 | 51.75757 | 1.06886 | 18179 ft | 349 kts | 276° |
| 2026-05-06 20:23 | 51.76031 | 1.03012 | 17631 ft | 346 kts | 276° |
| 2026-05-06 20:23 | 51.76180 | 0.99200 | 17080 ft | 344 kts | 266° |
| 2026-05-06 20:23 | 51.75763 | 0.95376 | 16433 ft | 341 kts | 259° |
| 2026-05-06 20:24 | 51.75263 | 0.91637 | 15754 ft | 340 kts | 259° |
| 2026-05-06 20:24 | 51.74767 | 0.87966 | 15122 ft | 338 kts | 259° |
| 2026-05-06 20:24 | 51.74257 | 0.84231 | 14492 ft | 336 kts | 259° |
| 2026-05-06 20:24 | 51.73757 | 0.80593 | 14009 ft | 335 kts | 259° |
| 2026-05-06 20:25 | 51.73254 | 0.76938 | 13480 ft | 333 kts | 259° |
| 2026-05-06 20:25 | 51.72756 | 0.73312 | 12955 ft | 330 kts | 259° |
| 2026-05-06 20:25 | 51.72260 | 0.69705 | 12443 ft | 328 kts | 259° |
| 2026-05-06 20:25 | 51.71769 | 0.66131 | 11942 ft | 325 kts | 259° |
| 2026-05-06 20:26 | 51.71280 | 0.62584 | 11451 ft | 323 kts | 258° |
| 2026-05-06 20:26 | 51.70789 | 0.59059 | 10958 ft | 321 kts | 258° |
| 2026-05-06 20:26 | 51.70300 | 0.55567 | 10478 ft | 319 kts | 258° |
| 2026-05-06 20:26 | 51.69815 | 0.52094 | 10024 ft | 316 kts | 258° |
| 2026-05-06 20:27 | 51.69340 | 0.48693 | 9843 ft | 305 kts | 258° |
| 2026-05-06 20:27 | 51.68883 | 0.45445 | 9688 ft | 289 kts | 258° |
| 2026-05-06 20:27 | 51.68446 | 0.42340 | 9358 ft | 281 kts | 258° |
| 2026-05-06 20:27 | 51.68019 | 0.39306 | 8899 ft | 279 kts | 258° |
| 2026-05-06 20:28 | 51.67594 | 0.36267 | 8427 ft | 277 kts | 258° |
| 2026-05-06 20:28 | 51.67169 | 0.33243 | 8062 ft | 276 kts | 257° |
| 2026-05-06 20:28 | 51.66741 | 0.30226 | 8009 ft | 277 kts | 257° |
| 2026-05-06 20:28 | 51.66309 | 0.27190 | 8015 ft | 278 kts | 257° |
| 2026-05-06 20:29 | 51.65877 | 0.24158 | 8024 ft | 278 kts | 257° |
| 2026-05-06 20:29 | 51.65451 | 0.21185 | 8022 ft | 265 kts | 257° |
| 2026-05-06 20:29 | 51.65046 | 0.18368 | 8028 ft | 252 kts | 257° |
| 2026-05-06 20:29 | 51.64750 | 0.15523 | 8036 ft | 268 kts | 265° |
| 2026-05-06 20:30 | 51.64604 | 0.12580 | 8023 ft | 257 kts | 266° |
| 2026-05-06 20:30 | 51.64341 | 0.06571 | 8030 ft | 276 kts | 266° |
| 2026-05-06 20:30 | 51.64210 | 0.03478 | 8021 ft | 277 kts | 266° |
| 2026-05-06 20:31 | 51.64079 | 0.00420 | 8029 ft | 278 kts | 266° |
| 2026-05-06 20:31 | 51.63940 | -0.02721 | 8047 ft | 277 kts | 266° |
| 2026-05-06 20:31 | 51.63777 | -0.05765 | 8045 ft | 276 kts | 266° |
| 2026-05-06 20:31 | 51.63601 | -0.08835 | 8052 ft | 275 kts | 266° |
| 2026-05-06 20:32 | 51.63427 | -0.11903 | 8052 ft | 275 kts | 266° |
| 2026-05-06 20:32 | 51.63246 | -0.14968 | 8044 ft | 275 kts | 266° |
| 2026-05-06 20:32 | 51.63002 | -0.18020 | 8057 ft | 277 kts | 259° |
| 2026-05-06 20:32 | 51.62530 | -0.21029 | 8059 ft | 277 kts | 256° |
| 2026-05-06 20:33 | 51.62027 | -0.24018 | 8063 ft | 277 kts | 256° |
| 2026-05-06 20:33 | 51.61528 | -0.27007 | 8052 ft | 277 kts | 256° |
| 2026-05-06 20:33 | 51.61017 | -0.29989 | 8007 ft | 276 kts | 257° |
| 2026-05-06 20:33 | 51.60508 | -0.32954 | 7693 ft | 274 kts | 256° |
| 2026-05-06 20:34 | 51.59993 | -0.35907 | 7346 ft | 273 kts | 256° |
| 2026-05-06 20:34 | 51.59495 | -0.38841 | 7058 ft | 271 kts | 256° |
| 2026-05-06 20:34 | 51.58999 | -0.41776 | 7024 ft | 272 kts | 256° |
| 2026-05-06 20:34 | 51.58556 | -0.44733 | 7025 ft | 271 kts | 264° |
| 2026-05-06 20:35 | 51.58471 | -0.47669 | 7028 ft | 256 kts | 270° |
| 2026-05-06 20:35 | 51.58452 | -0.50462 | 7028 ft | 244 kts | 270° |
| 2026-05-06 20:35 | 51.58406 | -0.53158 | 7022 ft | 241 kts | 262° |
| 2026-05-06 20:35 | 51.57952 | -0.55742 | 6855 ft | 240 kts | 252° |
| 2026-05-06 20:36 | 51.57389 | -0.58226 | 6571 ft | 239 kts | 251° |
| 2026-05-06 20:36 | 51.56817 | -0.60722 | 6232 ft | 237 kts | 251° |
| 2026-05-06 20:36 | 51.56237 | -0.63197 | 5839 ft | 236 kts | 251° |
| 2026-05-06 20:36 | 51.55670 | -0.65663 | 5451 ft | 235 kts | 251° |
| 2026-05-06 20:37 | 51.55105 | -0.68117 | 5039 ft | 233 kts | 251° |
| 2026-05-06 20:37 | 51.54535 | -0.70556 | 4618 ft | 233 kts | 251° |
| 2026-05-06 20:37 | 51.53971 | -0.72985 | 4178 ft | 232 kts | 251° |
| 2026-05-06 20:37 | 51.53399 | -0.75403 | 3810 ft | 228 kts | 251° |
| 2026-05-06 20:38 | 51.52770 | -0.77646 | 3666 ft | 214 kts | 233° |
| 2026-05-06 20:38 | 51.51625 | -0.79003 | 3489 ft | 202 kts | 196° |
| 2026-05-06 20:38 | 51.50290 | -0.79008 | 3232 ft | 191 kts | 160° |
| 2026-05-06 20:38 | 51.49144 | -0.77982 | 2999 ft | 187 kts | 138° |
| 2026-05-06 20:39 | 51.48277 | -0.76421 | 3002 ft | 188 kts | 120° |
| 2026-05-06 20:39 | 51.47758 | -0.74514 | 3003 ft | 186 kts | 101° |
| 2026-05-06 20:39 | 51.47624 | -0.72475 | 2979 ft | 184 kts | 86° |
| 2026-05-06 20:39 | 51.47637 | -0.70420 | 2818 ft | 183 kts | 86° |
| 2026-05-06 20:40 | 51.47650 | -0.68380 | 2587 ft | 183 kts | 86° |
| 2026-05-06 20:40 | 51.47662 | -0.66347 | 2341 ft | 180 kts | 86° |
| 2026-05-06 20:40 | 51.47672 | -0.64365 | 2096 ft | 175 kts | 86° |
| 2026-05-06 20:40 | 51.47682 | -0.62476 | 1863 ft | 164 kts | 86° |
| 2026-05-06 20:41 | 51.47691 | -0.60673 | 1645 ft | 161 kts | 85° |
| 2026-05-06 20:41 | 51.47701 | -0.58886 | 1421 ft | 161 kts | 86° |
| 2026-05-06 20:41 | 51.47709 | -0.57129 | 1203 ft | 152 kts | 86° |
| 2026-05-06 20:41 | 51.47715 | -0.55524 | 1000 ft | 137 kts | 85° |
| 2026-05-06 20:42 | 51.47722 | -0.54039 | 806 ft | 130 kts | 86° |
| 2026-05-06 20:42 | 51.47729 | -0.52595 | 638 ft | 128 kts | 86° |
| 2026-05-06 20:42 | 51.47736 | -0.51173 | 460 ft | 127 kts | 87° |
| 2026-05-06 20:42 | 51.47740 | -0.49768 | 291 ft | 126 kts | 86° |
| 2026-05-06 20:43 | 51.47744 | -0.48373 | 107 ft | 124 kts | 86° |
| 2026-05-06 20:43 | 51.47755 | -0.47127 | 89 ft | 89 kts | 90° |
| 2026-05-06 20:43 | 51.47762 | -0.46333 | 88 ft | 38 kts | 90° |
| 2026-05-06 20:43 | 51.47673 | -0.46108 | 86 ft | 17 kts | 147° |
| 2026-05-06 20:44 | 51.47632 | -0.46071 | 88 ft | 0 kts | 162° |
| 2026-05-06 20:44 | 51.47623 | -0.46069 | 89 ft | 3 kts | 174° |
| 2026-05-06 20:44 | 51.47604 | -0.46083 | 88 ft | 3 kts | 216° |
| 2026-05-06 20:44 | 51.47596 | -0.46111 | 89 ft | 4 kts | 257° |
| 2026-05-06 20:45 | 51.47596 | -0.46167 | 87 ft | 6 kts | 270° |
| 2026-05-06 20:45 | 51.47597 | -0.46251 | 86 ft | 9 kts | 271° |
| 2026-05-06 20:45 | 51.47598 | -0.46363 | 86 ft | 11 kts | 270° |
| 2026-05-06 20:45 | 51.47596 | -0.46505 | 88 ft | 14 kts | 268° |
| 2026-05-06 20:46 | 51.47592 | -0.46677 | 86 ft | 17 kts | 269° |
| 2026-05-06 20:46 | 51.47585 | -0.46878 | 86 ft | 19 kts | 266° |
| 2026-05-06 20:46 | 51.47583 | -0.47108 | 87 ft | 22 kts | 271° |
| 2026-05-06 20:46 | 51.47586 | -0.47365 | 87 ft | 22 kts | 270° |
| 2026-05-06 20:47 | 51.47584 | -0.47605 | 88 ft | 23 kts | 269° |
| 2026-05-06 20:47 | 51.47580 | -0.47873 | 89 ft | 25 kts | 269° |
| 2026-05-06 20:47 | 51.47578 | -0.48151 | 86 ft | 21 kts | 270° |
| 2026-05-06 20:47 | 51.47577 | -0.48355 | 86 ft | 17 kts | 270° |
| 2026-05-06 20:48 | 51.47520 | -0.48474 | 86 ft | 10 kts | 181° |
| 2026-05-06 20:48 | 51.47514 | -0.48474 | 86 ft | 0 kts | 180° |
| 2026-05-06 20:49 | 51.47502 | -0.48474 | 86 ft | 3 kts | 179° |
| 2026-05-06 20:49 | 51.47467 | -0.48473 | 86 ft | 6 kts | 180° |
| 2026-05-06 20:50 | 51.47415 | -0.48474 | 86 ft | 9 kts | 180° |
| 2026-05-06 20:50 | 51.47346 | -0.48475 | 86 ft | 11 kts | 180° |
| 2026-05-06 20:50 | 51.47259 | -0.48473 | 86 ft | 14 kts | 179° |
| 2026-05-06 20:50 | 51.47154 | -0.48474 | 86 ft | 16 kts | 180° |
| 2026-05-06 20:51 | 51.47032 | -0.48472 | 86 ft | 19 kts | 180° |
| 2026-05-06 20:51 | 51.46911 | -0.48472 | 88 ft | 12 kts | 187° |
| 2026-05-06 20:51 | 51.46876 | -0.48594 | 86 ft | 15 kts | 271° |
| 2026-05-06 20:51 | 51.46876 | -0.48770 | 86 ft | 16 kts | 269° |
| 2026-05-06 20:52 | 51.46878 | -0.48847 | 88 ft | 3 kts | 287° |
| 2026-05-06 20:52 | 51.46903 | -0.48858 | 89 ft | 4 kts | 354° |
| 2026-05-06 20:52 | 51.46924 | -0.48859 | 88 ft | 2 kts | 359° |
| 2026-05-06 20:52 | 51.46931 | -0.48859 | 87 ft | 0 kts | 359° |